Time;durP1;ratioP1;P1;durP2;ratioP2;P2;SDS_P1;SDS_P2;PMS_P1;PMS_P2;Temp;Humidity;BMP_temperature;BMP_pressure;BME280_temperature;BME280_humidity;BME280_pressure;Samples;Min_cycle;Max_cycle;Signal;HPM_P1;HPM_P2
2021/11/24 00:01:41;;;;;;;7.82;1.90;;;;;;;;;;4942265;28;20054;-66
2021/11/24 00:04:11;;;;;;;6.75;2.00;;;;;;;;;;4931729;29;20547;-67
2021/11/24 00:06:42;;;;;;;8.68;2.25;;;;;;;;;;4931764;29;20059;-67
2021/11/24 00:09:13;;;;;;;12.63;2.03;;;;;;;;;;4932015;29;20056;-67
2021/11/24 00:11:43;;;;;;;7.97;1.70;;;;;;;;;;4931990;29;20044;-68
2021/11/24 00:14:14;;;;;;;5.18;1.23;;;;;;;;;;4931770;29;20056;-68
2021/11/24 00:16:44;;;;;;;11.02;1.55;;;;;;;;;;4956953;28;20492;-69
2021/11/24 00:19:15;;;;;;;5.72;1.38;;;;;;;;;;4960533;28;20666;-67
2021/11/24 00:21:45;;;;;;;5.60;1.55;;;;;;;;;;4973240;28;20410;-67
2021/11/24 00:24:15;;;;;;;9.32;1.50;;;;;;;;;;5009272;28;20057;-68
2021/11/24 00:26:46;;;;;;;9.38;1.60;;;;;;;;;;4989257;28;20407;-67
2021/11/24 00:29:18;;;;;;;7.28;1.83;;;;;;;;;;4893292;29;21457;-66
2021/11/24 00:31:48;;;;;;;8.15;1.67;;;;;;;;;;4875180;29;20052;-66
2021/11/24 00:34:21;;;;;;;5.18;1.60;;;;;;;;;;4874581;29;20421;-67
2021/11/24 00:36:52;;;;;;;9.55;2.25;;;;;;;;;;4858888;29;20045;-67
2021/11/24 00:39:23;;;;;;;6.40;1.60;;;;;;;;;;4880717;29;20090;-67
2021/11/24 00:41:56;;;;;;;11.20;2.40;;;;;;;;;;4889684;29;20061;-69
2021/11/24 00:44:29;;;;;;;6.68;1.83;;;;;;;;;;4858506;29;20041;-67
2021/11/24 00:46:59;;;;;;;6.07;1.80;;;;;;;;;;4859991;29;20053;-67
2021/11/24 00:49:30;;;;;;;10.07;2.28;;;;;;;;;;4856035;29;20061;-67
2021/11/24 00:52:00;;;;;;;6.55;1.80;;;;;;;;;;4856402;29;20065;-68
2021/11/24 00:54:32;;;;;;;4.05;1.63;;;;;;;;;;4849232;29;20050;-70
2021/11/24 00:57:03;;;;;;;8.32;2.28;;;;;;;;;;4837713;29;20058;-67
2021/11/24 00:59:34;;;;;;;5.85;1.77;;;;;;;;;;4855830;29;20172;-68
2021/11/24 01:02:05;;;;;;;7.13;2.22;;;;;;;;;;4837360;29;20065;-69
2021/11/24 01:04:36;;;;;;;9.50;2.38;;;;;;;;;;4822516;29;20054;-68
2021/11/24 01:07:06;;;;;;;7.72;2.75;;;;;;;;;;4868915;29;20052;-68
2021/11/24 01:09:37;;;;;;;8.80;2.83;;;;;;;;;;4891172;29;20056;-68
2021/11/24 01:12:08;;;;;;;8.60;2.90;;;;;;;;;;4887013;29;20250;-68
2021/11/24 01:14:39;;;;;;;8.40;2.35;;;;;;;;;;4891625;29;20528;-70
2021/11/24 01:17:09;;;;;;;8.98;2.72;;;;;;;;;;4906907;29;20059;-72
2021/11/24 01:19:40;;;;;;;8.38;2.50;;;;;;;;;;4934265;29;20412;-68
2021/11/24 01:22:10;;;;;;;10.68;3.00;;;;;;;;;;4906053;29;20041;-68
2021/11/24 01:24:41;;;;;;;10.05;2.92;;;;;;;;;;4896673;29;20071;-68
2021/11/24 01:27:20;;;;;;;10.80;2.63;;;;;;;;;;4896850;29;20076;-70
2021/11/24 01:29:51;;;;;;;8.45;2.67;;;;;;;;;;4896855;29;20084;-68
2021/11/24 01:32:22;;;;;;;11.57;2.70;;;;;;;;;;4867573;29;20153;-67
2021/11/24 01:34:52;;;;;;;9.13;2.80;;;;;;;;;;4880450;29;20065;-67
2021/11/24 01:37:22;;;;;;;8.07;2.75;;;;;;;;;;4924050;29;20436;-67
2021/11/24 01:39:53;;;;;;;11.38;2.75;;;;;;;;;;4915676;29;20146;-68
2021/11/24 01:42:24;;;;;;;13.57;2.78;;;;;;;;;;4925137;29;20052;-68
2021/11/24 01:44:54;;;;;;;7.57;2.55;;;;;;;;;;4924271;29;20060;-70
2021/11/24 01:47:25;;;;;;;9.40;2.88;;;;;;;;;;4905049;29;20055;-69
2021/11/24 01:49:55;;;;;;;9.48;3.15;;;;;;;;;;4896636;29;20064;-68
2021/11/24 01:52:26;;;;;;;7.65;3.05;;;;;;;;;;4932190;29;20051;-68
2021/11/24 01:54:57;;;;;;;10.27;3.22;;;;;;;;;;4923670;29;20060;-68
2021/11/24 01:57:28;;;;;;;10.52;3.03;;;;;;;;;;4896087;29;20053;-68
2021/11/24 01:59:58;;;;;;;14.85;4.30;;;;;;;;;;4858768;29;20580;-68
2021/11/24 02:02:39;;;;;;;12.23;3.85;;;;;;;;;;4831126;29;20558;-70
2021/11/24 02:05:10;;;;;;;10.50;4.18;;;;;;;;;;4858735;29;20183;-70
2021/11/24 02:07:41;;;;;;;11.35;3.90;;;;;;;;;;4838825;29;20518;-69
2021/11/24 02:10:12;;;;;;;13.40;4.03;;;;;;;;;;4828597;29;20518;-69
2021/11/24 02:12:42;;;;;;;11.15;3.72;;;;;;;;;;4836633;29;20073;-68
2021/11/24 02:15:13;;;;;;;10.07;3.63;;;;;;;;;;4839104;29;20050;-69
2021/11/24 02:17:45;;;;;;;12.15;3.88;;;;;;;;;;4839623;29;20062;-68
2021/11/24 02:20:36;;;;;;;11.05;3.60;;;;;;;;;;4838933;29;20050;-68
2021/11/24 02:23:11;;;;;;;8.48;3.10;;;;;;;;;;4790225;29;20105;-68
2021/11/24 02:25:45;;;;;;;7.75;3.25;;;;;;;;;;4820632;29;20057;-68
2021/11/24 02:28:17;;;;;;;8.02;2.80;;;;;;;;;;4821093;29;20143;-68
2021/11/24 02:30:48;;;;;;;9.77;2.50;;;;;;;;;;4806956;29;20063;-70
2021/11/24 02:33:18;;;;;;;13.65;2.78;;;;;;;;;;4802825;29;20063;-69
2021/11/24 02:35:49;;;;;;;10.30;2.47;;;;;;;;;;4852977;29;20061;-68
2021/11/24 02:38:20;;;;;;;11.50;2.58;;;;;;;;;;4843182;29;20065;-68
2021/11/24 02:40:50;;;;;;;9.05;2.33;;;;;;;;;;4853919;29;20222;-68
2021/11/24 02:43:20;;;;;;;11.43;2.88;;;;;;;;;;4840877;29;20054;-68
2021/11/24 02:45:51;;;;;;;6.88;2.70;;;;;;;;;;4823107;29;20070;-68
2021/11/24 02:48:22;;;;;;;9.35;2.40;;;;;;;;;;4807943;29;20051;-68
2021/11/24 02:50:54;;;;;;;8.07;2.60;;;;;;;;;;4802269;29;20062;-70
2021/11/24 02:53:33;;;;;;;13.95;2.75;;;;;;;;;;4820522;29;20065;-68
2021/11/24 02:56:04;;;;;;;5.68;2.40;;;;;;;;;;4856790;29;20053;-68
2021/11/24 02:58:35;;;;;;;14.48;3.13;;;;;;;;;;4856952;29;20041;-68
2021/11/24 03:01:06;;;;;;;7.70;2.78;;;;;;;;;;4857043;29;20179;-69
2021/11/24 03:03:37;;;;;;;9.60;2.95;;;;;;;;;;4856998;29;21360;-69
2021/11/24 03:06:07;;;;;;;9.63;2.75;;;;;;;;;;4788984;29;2467993;-69
2021/11/24 03:08:38;;;;;;;8.63;2.70;;;;;;;;;;4855471;29;20065;-71
2021/11/24 03:11:09;;;;;;;7.78;2.90;;;;;;;;;;4857658;29;20053;-68
2021/11/24 03:13:40;;;;;;;12.30;2.78;;;;;;;;;;4832904;29;20573;-70
2021/11/24 03:16:10;;;;;;;8.80;2.63;;;;;;;;;;4839306;29;20562;-69
2021/11/24 03:18:41;;;;;;;8.05;2.92;;;;;;;;;;4855262;29;20080;-68
2021/11/24 03:21:13;;;;;;;9.90;2.63;;;;;;;;;;4857399;29;20569;-68
2021/11/24 03:23:43;;;;;;;9.23;2.83;;;;;;;;;;4868608;29;20509;-68
2021/11/24 03:26:15;;;;;;;6.57;2.83;;;;;;;;;;4876434;29;20065;-69
2021/11/24 03:28:45;;;;;;;;;;;;;;;;;;4887400;29;20052;-69
2021/11/24 03:31:16;;;;;;;10.65;3.13;;;;;;;;;;4894821;29;19934;-69
2021/11/24 03:33:46;;;;;;;10.07;2.80;;;;;;;;;;4894186;29;20064;-69
2021/11/24 03:36:17;;;;;;;11.40;3.47;;;;;;;;;;4881752;29;20056;-69
2021/11/24 03:38:47;;;;;;;10.05;3.05;;;;;;;;;;4904464;29;20061;-71
2021/11/24 03:41:18;;;;;;;9.05;2.85;;;;;;;;;;4909963;29;20568;-73
2021/11/24 03:43:48;;;;;;;8.85;3.42;;;;;;;;;;4900507;29;20060;-69
2021/11/24 03:46:18;;;;;;;9.05;3.17;;;;;;;;;;4894421;29;20060;-69
2021/11/24 03:48:49;;;;;;;10.40;3.33;;;;;;;;;;4857177;29;20052;-70
2021/11/24 03:51:20;;;;;;;10.43;3.35;;;;;;;;;;4894169;29;20217;-69
2021/11/24 03:53:51;;;;;;;9.63;3.20;;;;;;;;;;4897765;29;20056;-74
2021/11/24 03:56:22;;;;;;;8.38;3.35;;;;;;;;;;4903857;29;20057;-69
2021/11/24 03:58:52;;;;;;;8.85;3.38;;;;;;;;;;4894093;29;20059;-68
2021/11/24 04:01:23;;;;;;;11.52;3.42;;;;;;;;;;4894287;29;20144;-69
2021/11/24 04:03:54;;;;;;;12.63;3.22;;;;;;;;;;4894243;29;20065;-69
2021/11/24 04:06:29;;;;;;;7.10;3.80;;;;;;;;;;4903361;29;20508;-69
2021/11/24 04:09:00;;;;;;;10.60;3.65;;;;;;;;;;4913430;29;20105;-69
2021/11/24 04:11:34;;;;;;;11.13;3.78;;;;;;;;;;4912793;29;20063;-72
2021/11/24 04:14:05;;;;;;;10.50;3.90;;;;;;;;;;4883915;29;20068;-68
2021/11/24 04:16:38;;;;;;;11.23;3.63;;;;;;;;;;4875378;29;20410;-68
2021/11/24 04:19:08;;;;;;;11.35;3.65;;;;;;;;;;4875423;29;20060;-68
2021/11/24 04:21:38;;;;;;;17.48;4.15;;;;;;;;;;4875533;29;20529;-70
2021/11/24 04:24:12;;;;;;;7.80;3.90;;;;;;;;;;4873214;29;20053;-74
2021/11/24 04:26:42;;;;;;;12.73;3.95;;;;;;;;;;4896941;29;20048;-68
2021/11/24 04:29:15;;;;;;;10.23;3.45;;;;;;;;;;4912330;29;20066;-69
2021/11/24 04:31:47;;;;;;;18.15;4.47;;;;;;;;;;4894089;29;20058;-69
2021/11/24 04:34:18;;;;;;;13.00;4.65;;;;;;;;;;4912656;29;20063;-76
2021/11/24 04:36:49;;;;;;;11.43;4.60;;;;;;;;;;4912453;29;20052;-69
2021/11/24 04:39:20;;;;;;;11.43;4.75;;;;;;;;;;4897099;29;20052;-71
2021/11/24 04:41:50;;;;;;;16.23;4.55;;;;;;;;;;4910602;29;20064;-72
2021/11/24 04:44:21;;;;;;;9.65;4.28;;;;;;;;;;4926280;29;20226;-70
2021/11/24 04:46:52;;;;;;;13.77;5.00;;;;;;;;;;4950202;28;20058;-69
2021/11/24 04:49:22;;;;;;;15.02;5.38;;;;;;;;;;4931437;29;20052;-68
2021/11/24 04:51:53;;;;;;;13.93;4.95;;;;;;;;;;4953723;28;21226;-69
2021/11/24 04:54:24;;;;;;;14.70;4.63;;;;;;;;;;4930996;29;20548;-70
2021/11/24 04:56:54;;;;;;;14.57;4.90;;;;;;;;;;4931582;29;20064;-70
2021/11/24 04:59:25;;;;;;;10.52;4.05;;;;;;;;;;4931351;29;20059;-69
2021/11/24 05:01:55;;;;;;;9.32;3.60;;;;;;;;;;4915966;29;20063;-69
2021/11/24 05:04:28;;;;;;;10.43;3.75;;;;;;;;;;4941018;29;20062;-69
2021/11/24 05:06:58;;;;;;;11.52;4.10;;;;;;;;;;4929993;29;20072;-69
2021/11/24 05:09:29;;;;;;;10.00;3.90;;;;;;;;;;4912364;29;20056;-73
2021/11/24 05:12:04;;;;;;;10.95;3.95;;;;;;;;;;4927645;29;20497;-70
2021/11/24 05:14:38;;;;;;;9.15;3.58;;;;;;;;;;4930257;28;20074;-70
2021/11/24 05:17:13;;;;;;;10.40;3.63;;;;;;;;;;4969300;28;20164;-69
2021/11/24 05:19:48;;;;;;;8.80;3.22;;;;;;;;;;4969416;28;20050;-70
2021/11/24 05:22:19;;;;;;;11.52;3.95;;;;;;;;;;4953909;28;20392;-71
2021/11/24 05:24:52;;;;;;;12.75;3.55;;;;;;;;;;4966276;28;20467;-69
2021/11/24 05:27:22;;;;;;;11.63;3.35;;;;;;;;;;4976628;28;20054;-71
2021/11/24 05:29:53;;;;;;;13.55;4.20;;;;;;;;;;4982008;28;20066;-69
2021/11/24 05:32:24;;;;;;;12.32;3.75;;;;;;;;;;4988562;28;20415;-70
2021/11/24 05:34:54;;;;;;;15.02;4.13;;;;;;;;;;4953401;28;20419;-69
2021/11/24 05:37:25;;;;;;;10.45;3.60;;;;;;;;;;4949904;28;20048;-68
2021/11/24 05:39:56;;;;;;;9.40;3.58;;;;;;;;;;4949946;28;20044;-68
2021/11/24 05:42:27;;;;;;;12.02;3.58;;;;;;;;;;4950016;28;20599;-70
2021/11/24 05:48:06;;;;;;;10.13;3.85;;;;;;;;;;4921680;29;20538;-69
2021/11/24 05:50:44;;;;;;;13.07;4.43;;;;;;;;;;4930797;29;20079;-69
2021/11/24 05:53:17;;;;;;;11.50;3.85;;;;;;;;;;4930845;29;21047;-69
2021/11/24 05:55:49;;;;;;;9.32;3.60;;;;;;;;;;4891178;29;20049;-68
2021/11/24 05:58:21;;;;;;;7.40;3.75;;;;;;;;;;4894928;29;20044;-68
2021/11/24 06:00:51;;;;;;;;;;;;;;;;;;4877999;29;20068;-68
2021/11/24 06:03:22;;;;;;;9.13;3.58;;;;;;;;;;4831573;29;19924;-69
2021/11/24 06:05:53;;;;;;;10.23;3.70;;;;;;;;;;4903438;29;20052;-69
2021/11/24 06:08:23;;;;;;;8.13;3.65;;;;;;;;;;4899428;29;20067;-69
2021/11/24 06:10:54;;;;;;;9.90;3.60;;;;;;;;;;4883473;29;20061;-70
2021/11/24 06:13:24;;;;;;;9.48;3.03;;;;;;;;;;4895743;29;20056;-69
2021/11/24 06:15:54;;;;;;;11.70;3.65;;;;;;;;;;4864822;29;20062;-69
2021/11/24 06:18:25;;;;;;;9.40;3.65;;;;;;;;;;4874489;29;20053;-69
2021/11/24 06:20:56;;;;;;;10.50;3.53;;;;;;;;;;4877310;29;20056;-69
2021/11/24 06:23:26;;;;;;;7.95;3.17;;;;;;;;;;4877371;29;20064;-70
2021/11/24 06:25:56;;;;;;;13.50;3.75;;;;;;;;;;4893055;29;20513;-69
2021/11/24 06:28:27;;;;;;;8.30;3.42;;;;;;;;;;4895831;29;20056;-70
2021/11/24 06:30:57;;;;;;;7.00;3.03;;;;;;;;;;4895671;29;20056;-69
2021/11/24 06:33:27;;;;;;;8.98;3.10;;;;;;;;;;4867679;29;20061;-74
2021/11/24 06:35:58;;;;;;;7.65;3.58;;;;;;;;;;4870201;29;20081;-72
2021/11/24 06:38:29;;;;;;;8.15;3.85;;;;;;;;;;4923779;29;20056;-69
2021/11/24 06:40:59;;;;;;;9.35;4.18;;;;;;;;;;4914645;29;20056;-69
2021/11/24 06:43:30;;;;;;;12.80;4.22;;;;;;;;;;4867684;29;20059;-69
2021/11/24 06:46:01;;;;;;;10.27;3.45;;;;;;;;;;4914215;29;20052;-72
2021/11/24 06:48:31;;;;;;;9.27;4.00;;;;;;;;;;4892632;29;20067;-73
2021/11/24 06:51:02;;;;;;;8.63;4.28;;;;;;;;;;4916952;29;20060;-71
2021/11/24 06:53:32;;;;;;;9.32;4.40;;;;;;;;;;4933505;29;20068;-70
2021/11/24 06:56:03;;;;;;;11.02;4.43;;;;;;;;;;4929793;29;20063;-69
2021/11/24 06:58:34;;;;;;;9.85;4.07;;;;;;;;;;4942327;29;20074;-69
2021/11/24 07:01:05;;;;;;;12.43;3.88;;;;;;;;;;4937123;29;20082;-70
2021/11/24 07:03:55;;;;;;;9.45;4.03;;;;;;;;;;4956160;28;20062;-69
2021/11/24 07:06:26;;;;;;;10.90;3.90;;;;;;;;;;4959384;28;20055;-69
2021/11/24 07:09:00;;;;;;;13.27;4.25;;;;;;;;;;4951046;28;20063;-69
2021/11/24 07:11:32;;;;;;;9.20;3.75;;;;;;;;;;4913641;29;20067;-69
2021/11/24 07:14:03;;;;;;;9.45;4.13;;;;;;;;;;4913769;29;20063;-69
2021/11/24 07:16:33;;;;;;;10.65;4.28;;;;;;;;;;4878822;29;20499;-70
2021/11/24 07:19:05;;;;;;;12.13;4.82;;;;;;;;;;4894881;29;20060;-72
2021/11/24 07:21:35;;;;;;;14.38;4.38;;;;;;;;;;4882078;29;20061;-70
2021/11/24 07:24:06;;;;;;;13.40;4.15;;;;;;;;;;4860899;29;20053;-69
2021/11/24 07:26:37;;;;;;;10.55;3.90;;;;;;;;;;4894626;29;20098;-70
2021/11/24 07:29:07;;;;;;;10.95;4.07;;;;;;;;;;4913624;29;20436;-69
2021/11/24 07:31:38;;;;;;;8.13;4.10;;;;;;;;;;4913211;29;20052;-76
2021/11/24 07:34:09;;;;;;;11.50;3.75;;;;;;;;;;4863520;29;20057;-70
2021/11/24 07:36:40;;;;;;;10.90;4.40;;;;;;;;;;4863163;29;20682;-70
2021/11/24 07:39:11;;;;;;;11.25;4.40;;;;;;;;;;4827014;29;20525;-69
2021/11/24 07:41:41;;;;;;;10.68;4.60;;;;;;;;;;4875717;29;20052;-70
2021/11/24 07:44:11;;;;;;;10.20;5.03;;;;;;;;;;4866181;29;20065;-69
2021/11/24 07:46:42;;;;;;;12.25;4.32;;;;;;;;;;4867152;29;20057;-69
2021/11/24 07:49:12;;;;;;;11.55;4.95;;;;;;;;;;4875477;29;20057;-70
2021/11/24 07:51:43;;;;;;;8.90;4.78;;;;;;;;;;4875966;29;20053;-72
2021/11/24 07:54:15;;;;;;;8.80;4.65;;;;;;;;;;4884779;29;20061;-69
2021/11/24 07:56:45;;;;;;;12.10;4.93;;;;;;;;;;4875411;29;20488;-71
2021/11/24 07:59:16;;;;;;;8.77;4.03;;;;;;;;;;4865769;29;20053;-69
2021/11/24 08:01:46;;;;;;;10.07;4.53;;;;;;;;;;4855781;29;21104;-70
2021/11/24 08:04:17;;;;;;;14.63;4.78;;;;;;;;;;4847687;29;20045;-69
2021/11/24 08:06:47;;;;;;;12.13;4.93;;;;;;;;;;4847273;29;20064;-71
2021/11/24 08:09:18;;;;;;;12.95;5.28;;;;;;;;;;4856827;29;20073;-70
2021/11/24 08:11:48;;;;;;;11.45;6.03;;;;;;;;;;4875249;29;20057;-70
2021/11/24 08:14:19;;;;;;;13.85;6.05;;;;;;;;;;4851185;29;20062;-70
2021/11/24 08:16:49;;;;;;;10.75;4.80;;;;;;;;;;4838227;29;20058;-69
2021/11/24 08:19:20;;;;;;;10.57;4.88;;;;;;;;;;4829721;29;20065;-69
2021/11/24 08:21:51;;;;;;;19.30;5.00;;;;;;;;;;4819742;29;20456;-70
2021/11/24 08:24:24;;;;;;;9.60;4.40;;;;;;;;;;4819914;29;20099;-70
2021/11/24 08:26:54;;;;;;;7.70;4.03;;;;;;;;;;4795896;29;20066;-70
2021/11/24 08:29:24;;;;;;;10.38;4.35;;;;;;;;;;4795478;29;20066;-70
2021/11/24 08:31:55;;;;;;;11.25;4.40;;;;;;;;;;4807817;29;20057;-69
2021/11/24 08:34:26;;;;;;;9.05;4.10;;;;;;;;;;4847134;29;20423;-72
2021/11/24 08:36:59;;;;;;;11.32;4.75;;;;;;;;;;4875395;29;20064;-71
2021/11/24 08:39:29;;;;;;;13.77;4.65;;;;;;;;;;4903599;29;20457;-70
2021/11/24 08:44:57;;;;;;;9.07;4.07;;;;;;;;;;4931395;29;20051;-71
2021/11/24 08:47:28;;;;;;;9.90;3.88;;;;;;;;;;4911902;29;20056;-70
2021/11/24 08:50:00;;;;;;;7.63;3.95;;;;;;;;;;4964291;28;20123;-70
2021/11/24 08:52:30;;;;;;;15.25;4.47;;;;;;;;;;4915625;29;20741;-70
2021/11/24 08:55:02;;;;;;;9.88;4.03;;;;;;;;;;4893572;29;20064;-70
2021/11/24 08:57:32;;;;;;;9.30;3.85;;;;;;;;;;4874766;29;20072;-69
2021/11/24 09:00:07;;;;;;;8.10;3.60;;;;;;;;;;4875294;29;20072;-69
2021/11/24 09:02:38;;;;;;;10.40;3.92;;;;;;;;;;4860569;29;20057;-70
2021/11/24 09:05:10;;;;;;;7.10;3.53;;;;;;;;;;4856557;29;20062;-70
2021/11/24 09:07:41;;;;;;;11.00;3.85;;;;;;;;;;4855751;29;20561;-69
2021/11/24 09:10:11;;;;;;;10.30;3.65;;;;;;;;;;4856909;29;20077;-70
2021/11/24 09:12:42;;;;;;;7.45;3.80;;;;;;;;;;4856576;29;20115;-74
2021/11/24 09:15:13;;;;;;;9.35;4.10;;;;;;;;;;4856784;29;20058;-69
2021/11/24 09:18:06;;;;;;;11.68;3.78;;;;;;;;;;4856454;29;20074;-70
2021/11/24 09:20:36;;;;;;;9.43;3.90;;;;;;;;;;4857002;29;20064;-70
2021/11/24 09:23:08;;;;;;;10.07;4.10;;;;;;;;;;4823846;29;20574;-70
2021/11/24 09:28:21;;;;;;;13.77;4.40;;;;;;;;;;4847993;29;20076;-70
2021/11/24 09:30:52;;;;;;;9.27;3.90;;;;;;;;;;4885584;29;21088;-70
2021/11/24 09:33:22;;;;;;;13.05;3.88;;;;;;;;;;4925364;29;20059;-70
2021/11/24 09:35:54;;;;;;;8.43;3.60;;;;;;;;;;4945786;29;20475;-70
2021/11/24 09:38:24;;;;;;;10.18;4.18;;;;;;;;;;4915917;29;20048;-71
2021/11/24 09:40:56;;;;;;;10.13;4.72;;;;;;;;;;4903666;29;20057;-70
2021/11/24 09:43:33;;;;;;;10.18;4.30;;;;;;;;;;4878267;29;20068;-70
2021/11/24 09:46:05;;;;;;;10.13;4.72;;;;;;;;;;4885883;29;20057;-69
2021/11/24 09:48:36;;;;;;;13.40;5.20;;;;;;;;;;4877970;29;20057;-70
2021/11/24 09:51:06;;;;;;;16.88;6.07;;;;;;;;;;4878464;29;20057;-69
2021/11/24 09:53:39;;;;;;;13.20;6.28;;;;;;;;;;4859094;29;20057;-69
2021/11/24 09:56:12;;;;;;;14.88;4.97;;;;;;;;;;4859060;29;20053;-70
2021/11/24 09:58:42;;;;;;;18.10;5.80;;;;;;;;;;4840647;29;20046;-69
2021/11/24 10:01:12;;;;;;;14.18;5.15;;;;;;;;;;4807732;29;20058;-70
2021/11/24 10:03:43;;;;;;;10.88;4.45;;;;;;;;;;4818925;29;20054;-69
2021/11/24 10:06:15;;;;;;;11.57;5.00;;;;;;;;;;4840219;29;20069;-69
2021/11/24 10:09:02;;;;;;;12.68;5.18;;;;;;;;;;4822083;29;20566;-68
2021/11/24 10:11:32;;;;;;;9.73;4.47;;;;;;;;;;4822116;29;20065;-68
2021/11/24 10:14:02;;;;;;;11.82;4.45;;;;;;;;;;4807339;29;20058;-69
2021/11/24 10:16:35;;;;;;;8.48;3.92;;;;;;;;;;4844289;29;20510;-68
2021/11/24 10:19:11;;;;;;;12.60;4.80;;;;;;;;;;4868650;29;20069;-68
2021/11/24 10:22:19;;;;;;;10.95;4.57;;;;;;;;;;4854174;29;20041;-68
2021/11/24 10:25:06;;;;;;;11.00;4.35;;;;;;;;;;4803602;29;20055;-67
2021/11/24 10:27:43;;;;;;;9.48;4.50;;;;;;;;;;4858318;29;20065;-68
2021/11/24 10:30:28;;;;;;;11.55;4.30;;;;;;;;;;4858815;29;20062;-73
2021/11/24 10:33:19;;;;;;;13.10;4.93;;;;;;;;;;4877129;29;20413;-68
2021/11/24 10:36:14;;;;;;;8.40;4.85;;;;;;;;;;4845935;29;20064;-68
2021/11/24 10:38:49;;;;;;;9.73;4.90;;;;;;;;;;4885278;29;20056;-68
2021/11/24 10:41:39;;;;;;;16.50;6.07;;;;;;;;;;4904228;29;20432;-68
2021/11/24 10:44:31;;;;;;;12.48;6.07;;;;;;;;;;4914452;29;20071;-68
2021/11/24 10:47:06;;;;;;;12.70;5.47;;;;;;;;;;4928941;29;20063;-67
2021/11/24 10:49:46;;;;;;;12.90;5.45;;;;;;;;;;4895483;29;20528;-68
2021/11/24 10:52:36;;;;;;;9.65;4.82;;;;;;;;;;4895549;29;20068;-67
2021/11/24 10:55:17;;;;;;;12.10;5.47;;;;;;;;;;4879928;29;20065;-70
2021/11/24 10:58:00;;;;;;;16.27;7.50;;;;;;;;;;4877095;29;20553;-67
2021/11/24 11:00:38;;;;;;;17.90;6.10;;;;;;;;;;4902464;29;20051;-67
2021/11/24 11:03:43;;;;;;;12.38;4.68;;;;;;;;;;4878608;29;20057;-67
2021/11/24 11:06:28;;;;;;;;;;;;;;;;;;4893997;29;20060;-66
2021/11/24 11:08:59;;;;;;;11.68;4.25;;;;;;;;;;4895731;29;20372;-69
2021/11/24 11:11:39;;;;;;;14.65;4.22;;;;;;;;;;4892680;29;20053;-67
2021/11/24 11:14:17;;;;;;;12.65;4.32;;;;;;;;;;4842639;29;20057;-67
2021/11/24 11:16:52;;;;;;;11.65;4.28;;;;;;;;;;4858079;29;20061;-70
2021/11/24 11:19:41;;;;;;;8.30;4.72;;;;;;;;;;4902334;29;20056;-67
2021/11/24 11:22:17;;;;;;;9.32;4.40;;;;;;;;;;4914512;29;20064;-68
2021/11/24 11:24:48;;;;;;;7.95;4.53;;;;;;;;;;4898690;29;20535;-68
2021/11/24 11:27:18;;;;;;;7.75;4.18;;;;;;;;;;4933237;29;20058;-79
2021/11/24 11:29:49;;;;;;;9.88;3.88;;;;;;;;;;4894655;29;20059;-68
2021/11/24 11:32:21;;;;;;;12.57;4.55;;;;;;;;;;4876202;29;20057;-67
2021/11/24 11:34:52;;;;;;;12.48;4.40;;;;;;;;;;4886862;29;20067;-66
2021/11/24 11:37:23;;;;;;;13.15;3.97;;;;;;;;;;4898224;29;20052;-67
2021/11/24 11:39:55;;;;;;;12.77;6.03;;;;;;;;;;4913859;29;20071;-67
2021/11/24 11:42:30;;;;;;;14.95;5.05;;;;;;;;;;4913770;29;20065;-66
2021/11/24 11:45:21;;;;;;;13.40;4.88;;;;;;;;;;4875807;29;20060;-67
2021/11/24 11:47:56;;;;;;;10.23;4.07;;;;;;;;;;4876329;29;20084;-67
2021/11/24 11:50:56;;;;;;;13.50;4.15;;;;;;;;;;4842091;29;20105;-69
2021/11/24 11:53:39;;;;;;;12.68;4.85;;;;;;;;;;4913533;29;20056;-70
2021/11/24 11:56:33;;;;;;;14.35;4.50;;;;;;;;;;4915223;29;20059;-69
2021/11/24 11:59:10;;;;;;;7.50;4.13;;;;;;;;;;4901024;29;20052;-69
2021/11/24 12:01:43;;;;;;;11.82;3.85;;;;;;;;;;4977250;28;20047;-67
2021/11/24 12:04:19;;;;;;;11.45;4.53;;;;;;;;;;4990120;28;20078;-70
2021/11/24 12:06:53;;;;;;;15.15;7.53;;;;;;;;;;4957426;28;20058;-66
2021/11/24 12:09:29;;;;;;;9.25;4.45;;;;;;;;;;4994882;28;20049;-70
2021/11/24 12:12:07;;;;;;;13.80;5.70;;;;;;;;;;5004709;28;20057;-67
2021/11/24 12:14:43;;;;;;;;;;;;;;;;;;5049700;28;20041;-67
2021/11/24 12:17:37;;;;;;;10.02;5.43;;;;;;;;;;5035904;28;19921;-71
2021/11/24 12:25:26;;;;;;;8.70;3.67;;;;;;;;;;5052796;28;20051;-66
2021/11/24 12:28:05;;;;;;;7.88;3.33;;;;;;;;;;5070396;28;20032;-67
2021/11/24 12:30:36;;;;;;;13.15;3.78;;;;;;;;;;5068696;28;20049;-67
2021/11/24 12:33:14;;;;;;;6.85;3.95;;;;;;;;;;5035614;28;20056;-67
2021/11/24 12:36:04;;;;;;;8.65;3.33;;;;;;;;;;5069083;28;20056;-67
2021/11/24 12:38:47;;;;;;;7.45;3.38;;;;;;;;;;5048568;28;20049;-66
2021/11/24 12:41:23;;;;;;;5.75;3.15;;;;;;;;;;5028706;28;20049;-66
2021/11/24 12:43:57;;;;;;;8.18;3.28;;;;;;;;;;5028765;28;20064;-68
2021/11/24 12:46:29;;;;;;;8.80;3.33;;;;;;;;;;4970057;28;20050;-66
2021/11/24 12:49:03;;;;;;;13.40;3.50;;;;;;;;;;4950403;28;20051;-66
2021/11/24 12:51:51;;;;;;;8.07;3.20;;;;;;;;;;4935050;28;20385;-72
2021/11/24 12:54:25;;;;;;;8.02;3.22;;;;;;;;;;4950739;28;20088;-66
2021/11/24 12:56:58;;;;;;;10.45;3.08;;;;;;;;;;4902899;28;20051;-68
2021/11/24 12:59:38;;;;;;;7.80;3.63;;;;;;;;;;4931173;29;20063;-67
2021/11/24 13:02:11;;;;;;;8.55;2.83;;;;;;;;;;4899508;29;20538;-66
2021/11/24 13:04:47;;;;;;;10.57;3.20;;;;;;;;;;4931645;28;20067;-68
2021/11/24 13:07:20;;;;;;;7.53;2.95;;;;;;;;;;4933284;29;20056;-66
2021/11/24 13:09:52;;;;;;;9.02;3.95;;;;;;;;;;4903758;29;20066;-70
2021/11/24 13:12:25;;;;;;;9.43;3.22;;;;;;;;;;4935367;29;20062;-66
2021/11/24 13:14:58;;;;;;;12.73;3.25;;;;;;;;;;4934995;29;20052;-66
2021/11/24 13:17:51;;;;;;;6.20;3.35;;;;;;;;;;4954589;28;20051;-66
2021/11/24 13:20:30;;;;;;;7.55;2.50;;;;;;;;;;4953932;28;20051;-66
2021/11/24 13:23:01;;;;;;;11.93;3.47;;;;;;;;;;4954339;28;20063;-66
2021/11/24 13:25:35;;;;;;;;;;;;;;;;;;4975973;28;20047;-66
2021/11/24 13:28:11;;;;;;;7.55;3.17;;;;;;;;;;5032483;28;19928;-66
2021/11/24 13:30:47;;;;;;;9.93;2.72;;;;;;;;;;5051768;28;20055;-65
2021/11/24 13:33:24;;;;;;;6.72;2.67;;;;;;;;;;5035897;28;20060;-70
2021/11/24 13:35:56;;;;;;;7.43;2.78;;;;;;;;;;5031809;28;20046;-66
2021/11/24 13:38:33;;;;;;;7.03;2.30;;;;;;;;;;5031878;28;20045;-65
2021/11/24 13:41:19;;;;;;;11.05;2.88;;;;;;;;;;4992531;28;20053;-66
2021/11/24 13:43:57;;;;;;;4.45;2.65;;;;;;;;;;4992608;28;20421;-69
2021/11/24 13:46:50;;;;;;;11.90;2.92;;;;;;;;;;4973055;28;20542;-66
2021/11/24 13:49:28;;;;;;;6.97;2.75;;;;;;;;;;4934051;28;20048;-66
2021/11/24 13:52:06;;;;;;;9.55;3.03;;;;;;;;;;4929836;28;20060;-68
2021/11/24 13:54:52;;;;;;;7.25;2.38;;;;;;;;;;4915769;29;20064;-66
2021/11/24 13:57:27;;;;;;;12.10;3.42;;;;;;;;;;4911598;29;20312;-66
2021/11/24 14:00:14;;;;;;;12.85;2.58;;;;;;;;;;4934233;28;20055;-66
2021/11/24 14:02:47;;;;;;;6.35;2.70;;;;;;;;;;4928058;29;20051;-65
2021/11/24 14:05:18;;;;;;;7.65;2.67;;;;;;;;;;4899493;29;20071;-67
2021/11/24 14:07:49;;;;;;;6.35;2.92;;;;;;;;;;4920745;29;20048;-67
2021/11/24 14:10:23;;;;;;;8.13;2.35;;;;;;;;;;4934377;29;20062;-67
2021/11/24 14:12:57;;;;;;;6.15;2.58;;;;;;;;;;4934290;29;20440;-64
2021/11/24 14:15:28;;;;;;;6.50;2.55;;;;;;;;;;4919225;29;20059;-65
2021/11/24 14:18:04;;;;;;;8.73;2.33;;;;;;;;;;4933026;29;20047;-67
2021/11/24 14:20:44;;;;;;;6.10;2.33;;;;;;;;;;4918358;29;20476;-70
2021/11/24 14:23:24;;;;;;;5.20;2.03;;;;;;;;;;4923828;28;20058;-69
2021/11/24 14:25:56;;;;;;;7.32;2.50;;;;;;;;;;5011605;28;20045;-65
2021/11/24 14:28:37;;;;;;;8.05;2.53;;;;;;;;;;4956636;28;20047;-64
2021/11/24 14:31:28;;;;;;;9.68;2.33;;;;;;;;;;4971842;28;20053;-66
2021/11/24 14:33:59;;;;;;;7.07;2.50;;;;;;;;;;4972163;28;20661;-68
2021/11/24 14:36:31;;;;;;;4.63;2.35;;;;;;;;;;4970310;28;20074;-66
2021/11/24 14:39:03;;;;;;;10.20;2.55;;;;;;;;;;4952516;28;20195;-66
2021/11/24 14:41:34;;;;;;;7.43;2.30;;;;;;;;;;4956186;28;20062;-67
2021/11/24 14:44:05;;;;;;;6.07;2.13;;;;;;;;;;4972239;28;20055;-65
2021/11/24 14:46:38;;;;;;;5.15;2.15;;;;;;;;;;4972328;28;20055;-65
2021/11/24 14:49:10;;;;;;;6.57;2.33;;;;;;;;;;4972310;28;20059;-64
2021/11/24 14:51:42;;;;;;;5.72;2.13;;;;;;;;;;4972066;28;20072;-68
2021/11/24 14:54:13;;;;;;;5.25;2.33;;;;;;;;;;4940181;28;20499;-65
2021/11/24 14:56:46;;;;;;;5.10;2.38;;;;;;;;;;4904146;29;20060;-66
2021/11/24 14:59:17;;;;;;;8.93;2.05;;;;;;;;;;4933436;28;20056;-65
2021/11/24 15:01:48;;;;;;;3.65;2.00;;;;;;;;;;4918508;28;20511;-65
2021/11/24 15:04:23;;;;;;;4.15;2.05;;;;;;;;;;4933621;29;20060;-65
2021/11/24 15:06:54;;;;;;;7.03;2.28;;;;;;;;;;4933356;28;20063;-65
2021/11/24 15:09:24;;;;;;;4.03;1.83;;;;;;;;;;4964403;28;20065;-66
2021/11/24 15:11:55;;;;;;;6.68;2.28;;;;;;;;;;4971988;28;20059;-64
2021/11/24 15:14:25;;;;;;;6.05;2.40;;;;;;;;;;4971998;28;20494;-65
2021/11/24 15:16:57;;;;;;;4.45;1.80;;;;;;;;;;4995606;28;20062;-66
2021/11/24 15:19:28;;;;;;;7.05;2.30;;;;;;;;;;5010789;28;20498;-66
2021/11/24 15:21:58;;;;;;;10.93;2.38;;;;;;;;;;4994121;28;20054;-68
2021/11/24 15:24:29;;;;;;;7.30;1.92;;;;;;;;;;5010677;28;20543;-65
2021/11/24 15:26:59;;;;;;;3.53;1.90;;;;;;;;;;5010608;28;20060;-65
2021/11/24 15:29:30;;;;;;;6.22;2.03;;;;;;;;;;5009298;28;20155;-65